Time;durP1;ratioP1;P1;durP2;ratioP2;P2;SDS_P1;SDS_P2;PMS_P1;PMS_P2;Temp;Humidity;BMP_temperature;BMP_pressure;BME280_temperature;BME280_humidity;BME280_pressure;Samples;Min_cycle;Max_cycle;Signal;HPM_P1;HPM_P2
2022/01/09 00:00:15;;;;;;;;;;;;;;;-21.47;84.44;100809.00;5052873;28;20390;-69
2022/01/09 00:02:42;;;;;;;;;;;;;;;-21.48;85.25;100809.72;5052730;28;19921;-69
2022/01/09 00:05:09;;;;;;;;;;;;;;;-21.41;84.69;100797.09;5053146;28;19920;-67
2022/01/09 00:07:36;;;;;;;;;;;;;;;-21.41;85.14;100801.16;5052948;28;20391;-71
2022/01/09 00:10:03;;;;;;;;;;;;;;;-21.40;83.78;100803.72;5052718;28;19920;-69
2022/01/09 00:12:32;;;;;;;;;;;;;;;-21.47;84.60;100795.75;5052682;28;20363;-70
2022/01/09 00:14:58;;;;;;;;;;;;;;;-21.43;85.33;100795.25;5052645;28;19928;-70
2022/01/09 00:17:25;;;;;;;;;;;;;;;-21.48;83.54;100794.06;5052501;28;19928;-70
2022/01/09 00:19:52;;;;;;;;;;;;;;;-21.63;84.03;100794.63;5052448;28;20378;-69
2022/01/09 00:22:24;;;;;;;;;;;;;;;-21.62;83.34;100788.97;5052487;28;19943;-65
2022/01/09 00:24:50;;;;;;;;;;;;;;;-21.68;84.50;100792.59;5052639;28;19982;-68
2022/01/09 00:27:17;;;;;;;;;;;;;;;-21.71;84.50;100784.97;5052474;28;19920;-67
2022/01/09 00:29:45;;;;;;;;;;;;;;;-21.72;84.91;100785.72;5052246;28;19927;-66
2022/01/09 00:32:11;;;;;;;;;;;;;;;-21.67;84.95;100779.50;5052365;28;19921;-68
2022/01/09 00:34:38;;;;;;;;;;;;;;;-21.66;83.28;100772.19;5052514;28;19921;-71
2022/01/09 00:37:05;;;;;;;;;;;;;;;-21.80;84.51;100781.06;5052710;28;20371;-70
2022/01/09 00:39:31;;;;;;;;;;;;;;;-21.88;85.16;100787.06;5056653;28;19928;-70
2022/01/09 00:41:58;;;;;;;;;;;;;;;-22.10;84.79;100783.72;5056514;28;19928;-70
2022/01/09 00:44:25;;;;;;;;;;;;;;;-22.22;84.96;100787.00;5056346;28;19920;-70
2022/01/09 00:46:56;;;;;;;;;;;;;;;-22.13;85.92;100785.97;5056379;28;19928;-70
2022/01/09 00:49:23;;;;;;;;;;;;;;;-21.98;84.79;100792.03;5056778;28;19947;-70
2022/01/09 00:51:50;;;;;;;;;;;;;;;-21.83;85.85;100795.66;5056258;28;19920;-70
2022/01/09 00:54:16;;;;;;;;;;;;;;;-21.86;86.24;100795.41;5056309;28;19935;-70
2022/01/09 00:56:43;;;;;;;;;;;;;;;-21.72;84.42;100793.97;5056187;28;19921;-71
2022/01/09 00:59:09;;;;;;;;;;;;;;;-21.72;83.46;100798.06;5056251;28;20295;-70
2022/01/09 01:01:36;;;;;;;;;;;;;;;-21.77;83.83;100796.09;5056284;28;19921;-71
2022/01/09 01:04:04;;;;;;;;;;;;;;;-21.91;83.48;100795.81;5056077;28;19939;-73
2022/01/09 01:06:31;;;;;;;;;;;;;;;-22.05;84.25;100799.72;5055945;28;19927;-74
2022/01/09 01:08:57;;;;;;;;;;;;;;;-22.23;82.77;100796.78;5055766;28;19928;-71
2022/01/09 01:11:24;;;;;;;;;;;;;;;-22.30;83.94;100805.28;5055732;28;20386;-72
2022/01/09 01:13:50;;;;;;;;;;;;;;;-22.23;83.32;100814.91;5055751;28;20382;-70
2022/01/09 01:16:17;;;;;;;;;;;;;;;-22.49;83.42;100812.91;5055945;28;19935;-70
2022/01/09 01:18:45;;;;;;;;;;;;;;;-22.61;84.51;100816.03;5055755;28;19928;-68
2022/01/09 01:21:13;;;;;;;;;;;;;;;-22.42;85.52;100814.25;5055634;28;19924;-72
2022/01/09 01:23:40;;;;;;;;;;;;;;;-22.07;86.00;100818.50;5055890;28;19944;-71
2022/01/09 01:26:07;;;;;;;;;;;;;;;-22.10;85.01;100826.53;5055669;28;19921;-70
2022/01/09 01:28:33;;;;;;;;;;;;;;;-22.17;84.25;100821.88;5055741;28;19920;-71
2022/01/09 01:31:00;;;;;;;;;;;;;;;-22.04;84.71;100826.13;5055546;28;19921;-71
2022/01/09 01:33:27;;;;;;;;;;;;;;;-22.12;84.61;100844.44;5055430;28;19924;-70
2022/01/09 01:35:53;;;;;;;;;;;;;;;-22.31;85.34;100842.19;5055580;28;19920;-72
2022/01/09 01:38:21;;;;;;;;;;;;;;;-22.43;85.23;100842.09;5055394;28;19921;-71
2022/01/09 01:40:48;;;;;;;;;;;;;;;-22.42;84.95;100847.16;5055214;28;19924;-71
2022/01/09 01:43:14;;;;;;;;;;;;;;;-22.34;84.42;100850.22;5055482;28;19921;-71
2022/01/09 01:45:41;;;;;;;;;;;;;;;-22.42;85.29;100846.31;5055218;28;19921;-71
2022/01/09 01:48:09;;;;;;;;;;;;;;;-22.24;85.89;100845.25;5055046;28;19921;-68
2022/01/09 01:50:37;;;;;;;;;;;;;;;-22.06;85.23;100840.84;5055197;28;20357;-71
2022/01/09 01:53:05;;;;;;;;;;;;;;;-22.03;86.34;100835.28;5055117;28;20435;-71
2022/01/09 01:55:36;;;;;;;;;;;;;;;-21.85;85.45;100834.19;5055302;28;19975;-72
2022/01/09 01:58:03;;;;;;;;;;;;;;;-21.82;85.13;100839.34;5055056;28;19921;-70
2022/01/09 02:00:30;;;;;;;;;;;;;;;-22.04;84.98;100831.06;5055045;28;20371;-71
2022/01/09 02:02:56;;;;;;;;;;;;;;;-22.27;83.86;100831.81;5054896;28;19927;-71
2022/01/09 02:05:23;;;;;;;;;;;;;;;-22.06;83.67;100823.56;5055022;28;20286;-72
2022/01/09 02:07:50;;;;;;;;;;;;;;;-22.12;82.79;100834.56;5054852;28;19924;-71
2022/01/09 02:10:17;;;;;;;;;;;;;;;-22.50;81.83;100834.97;5054767;28;20377;-67
2022/01/09 02:12:45;;;;;;;;;;;;;;;-22.82;82.83;100839.88;5054777;28;19921;-72
2022/01/09 02:15:28;;;;;;;;;;;;;;;-23.07;82.79;100852.72;5054902;28;19924;-71
2022/01/09 02:17:55;;;;;;;;;;;;;;;-23.17;84.48;100848.66;5054779;28;19921;-72
2022/01/09 02:20:23;;;;;;;;;;;;;;;-23.19;84.55;100841.88;5054632;28;20286;-70
2022/01/09 02:22:50;;;;;;;;;;;;;;;-23.16;85.11;100842.16;5054711;28;19927;-69
2022/01/09 02:25:16;;;;;;;;;;;;;;;-23.10;85.95;100837.72;5054974;28;19920;-71
2022/01/09 02:27:43;;;;;;;;;;;;;;;-23.11;84.54;100841.78;5054544;28;20359;-69
2022/01/09 02:30:10;;;;;;;;;;;;;;;-22.98;85.89;100833.75;5054378;28;20310;-68
2022/01/09 02:32:36;;;;;;;;;;;;;;;-23.02;84.69;100828.47;5054490;28;19920;-67
2022/01/09 02:35:03;;;;;;;;;;;;;;;-23.10;84.55;100836.09;5054381;28;19928;-67
2022/01/09 02:37:31;;;;;;;;;;;;;;;-22.99;85.65;100833.63;5054401;28;19932;-71
2022/01/09 02:39:58;;;;;;;;;;;;;;;-23.10;85.75;100833.63;5054166;28;19928;-70
2022/01/09 02:42:28;;;;;;;;;;;;;;;-23.04;85.68;100827.47;5054196;28;20278;-67
2022/01/09 02:44:56;;;;;;;;;;;;;;;-22.88;85.98;100818.94;5054183;28;19927;-65
2022/01/09 02:47:23;;;;;;;;;;;;;;;-23.11;85.31;100822.06;5053989;28;20458;-71
2022/01/09 02:49:52;;;;;;;;;;;;;;;-22.78;83.63;100818.06;5054482;28;19921;-64
2022/01/09 02:52:32;;;;;;;;;;;;;;;-22.94;83.75;100825.81;5054171;28;20011;-71
2022/01/09 02:55:12;;;;;;;;;;;;;;;-22.48;83.60;100808.81;5054018;28;19927;-67
2022/01/09 02:57:39;;;;;;;;;;;;;;;-22.64;82.08;100802.72;5053995;28;20023;-65
2022/01/09 03:00:07;;;;;;;;;;;;;;;-22.64;79.73;100805.19;5052972;28;19927;-66
2022/01/09 03:02:33;;;;;;;;;;;;;;;-22.80;79.14;100802.28;5053923;28;19921;-68
2022/01/09 03:05:00;;;;;;;;;;;;;;;-22.93;80.02;100802.06;5053819;28;20011;-70
2022/01/09 03:07:27;;;;;;;;;;;;;;;-23.03;81.27;100804.56;5053826;28;19934;-71
2022/01/09 03:09:53;;;;;;;;;;;;;;;-23.36;81.05;100804.47;5053660;28;20298;-70
2022/01/09 03:12:22;;;;;;;;;;;;;;;-23.39;81.07;100815.69;5053827;28;19944;-71
2022/01/09 03:14:49;;;;;;;;;;;;;;;-23.49;80.97;100813.22;5053953;28;19920;-70
2022/01/09 03:17:16;;;;;;;;;;;;;;;-23.61;81.31;100813.06;5053733;28;19921;-71
2022/01/09 03:19:42;;;;;;;;;;;;;;;-23.77;80.41;100808.53;5053583;28;20390;-70
2022/01/09 03:22:09;;;;;;;;;;;;;;;-23.79;79.81;100812.47;5053577;28;19944;-71
2022/01/09 03:24:35;;;;;;;;;;;;;;;-23.91;81.54;100813.91;5053531;28;19921;-69
2022/01/09 03:27:02;;;;;;;;;;;;;;;-23.97;80.41;100809.34;5053437;28;19982;-70
2022/01/09 03:29:31;;;;;;;;;;;;;;;-24.01;81.40;100818.09;5053262;28;19966;-70
2022/01/09 03:31:57;;;;;;;;;;;;;;;-24.00;83.46;100823.84;5053264;28;19927;-71
2022/01/09 03:34:24;;;;;;;;;;;;;;;-24.02;83.33;100828.63;5053354;28;19927;-67
2022/01/09 03:36:51;;;;;;;;;;;;;;;-23.91;84.97;100832.00;5053468;28;19921;-69
2022/01/09 03:39:17;;;;;;;;;;;;;;;-23.93;84.45;100835.09;5053060;28;19927;-68
2022/01/09 03:41:44;;;;;;;;;;;;;;;-23.95;84.35;100837.41;5053108;28;19928;-69
2022/01/09 03:44:10;;;;;;;;;;;;;;;-23.83;85.62;100840.88;5053323;28;19943;-71
2022/01/09 03:46:38;;;;;;;;;;;;;;;-23.81;85.63;100841.00;5053152;28;19921;-70
2022/01/09 03:49:05;;;;;;;;;;;;;;;-23.82;86.46;100835.22;5053211;28;19932;-71
2022/01/09 03:51:36;;;;;;;;;;;;;;;-23.75;85.69;100837.44;5053154;28;19928;-70
2022/01/09 03:54:04;;;;;;;;;;;;;;;-23.58;85.64;100833.88;5052800;28;19921;-71
2022/01/09 03:56:30;;;;;;;;;;;;;;;-23.55;85.63;100836.59;5052957;28;19927;-70
2022/01/09 03:58:57;;;;;;;;;;;;;;;-23.70;83.85;100840.25;5052598;28;19928;-70
2022/01/09 04:01:23;;;;;;;;;;;;;;;-23.55;82.08;100848.03;5052822;28;19921;-69
2022/01/09 04:03:51;;;;;;;;;;;;;;;-23.56;81.20;100851.22;5052889;28;19928;-71
2022/01/09 04:06:18;;;;;;;;;;;;;;;-23.67;80.89;100851.97;5052638;28;19990;-70
2022/01/09 04:08:44;;;;;;;;;;;;;;;-23.79;81.24;100857.63;5052726;28;19932;-71
2022/01/09 04:11:15;;;;;;;;;;;;;;;-23.90;81.79;100859.94;5052683;28;19920;-71
2022/01/09 04:13:42;;;;;;;;;;;;;;;-23.97;82.85;100853.63;5052812;28;19920;-70
2022/01/09 04:16:08;;;;;;;;;;;;;;;-24.09;84.69;100855.06;5052662;28;19928;-71
2022/01/09 04:18:35;;;;;;;;;;;;;;;-24.11;84.25;100856.56;5052611;28;20390;-70
2022/01/09 04:21:03;;;;;;;;;;;;;;;-24.10;84.80;100855.81;5052576;28;19928;-70
2022/01/09 04:23:29;;;;;;;;;;;;;;;-24.14;84.36;100864.53;5052632;28;20355;-70
2022/01/09 04:25:56;;;;;;;;;;;;;;;-24.16;84.20;100858.63;5052634;28;19943;-70
2022/01/09 04:28:23;;;;;;;;;;;;;;;-23.90;84.31;100860.78;5052629;28;19927;-70
2022/01/09 04:30:49;;;;;;;;;;;;;;;-23.72;82.35;100858.13;5052387;28;19927;-71
2022/01/09 04:33:16;;;;;;;;;;;;;;;-23.47;80.75;100860.94;5052627;28;19924;-71
2022/01/09 04:35:42;;;;;;;;;;;;;;;-23.55;79.74;100856.28;5052429;28;19959;-71
2022/01/09 04:38:10;;;;;;;;;;;;;;;-23.55;79.96;100856.28;5052353;28;19928;-70
2022/01/09 04:40:37;;;;;;;;;;;;;;;-23.62;80.60;100861.44;5052523;28;19921;-71
2022/01/09 04:43:07;;;;;;;;;;;;;;;-23.68;81.27;100868.34;5052282;28;19921;-71
2022/01/09 04:45:33;;;;;;;;;;;;;;;-23.62;80.86;100871.28;5052199;28;19927;-71
2022/01/09 04:48:09;;;;;;;;;;;;;;;-23.65;80.85;100862.81;5052201;28;19920;-72
2022/01/09 04:50:37;;;;;;;;;;;;;;;-23.98;80.92;100862.63;5052582;28;19959;-72
2022/01/09 04:53:06;;;;;;;;;;;;;;;-24.05;80.88;100865.28;5052408;28;19921;-72
2022/01/09 04:55:35;;;;;;;;;;;;;;;-24.11;81.67;100869.72;5052229;28;19931;-71
2022/01/09 04:58:01;;;;;;;;;;;;;;;-24.16;82.54;100879.91;5052735;28;19920;-72
2022/01/09 05:00:28;;;;;;;;;;;;;;;-24.18;82.61;100879.75;5052125;28;20394;-69
2022/01/09 05:02:54;;;;;;;;;;;;;;;-24.24;82.70;100887.50;5052067;28;19924;-71
2022/01/09 05:05:22;;;;;;;;;;;;;;;-24.28;83.41;100890.41;5052128;28;20248;-71
2022/01/09 05:07:48;;;;;;;;;;;;;;;-24.28;83.65;100890.41;5052266;28;20386;-71
2022/01/09 05:10:15;;;;;;;;;;;;;;;-24.25;84.40;100892.25;5052228;28;19921;-71
2022/01/09 05:12:43;;;;;;;;;;;;;;;-24.27;84.80;100893.72;5052206;28;19920;-69
2022/01/09 05:15:12;;;;;;;;;;;;;;;-24.15;84.56;100884.94;5052094;28;19928;-70
2022/01/09 05:17:39;;;;;;;;;;;;;;;-23.87;82.34;100882.34;5052431;28;20004;-71
2022/01/09 05:20:06;;;;;;;;;;;;;;;-23.86;82.40;100882.47;5052182;28;19921;-71
2022/01/09 05:22:33;;;;;;;;;;;;;;;-23.77;82.83;100887.28;5051986;28;20453;-71
2022/01/09 05:25:01;;;;;;;;;;;;;;;-23.94;82.59;100889.94;5055544;28;20389;-64
2022/01/09 05:27:28;;;;;;;;;;;;;;;-24.11;83.33;100893.44;5055859;28;19974;-71
2022/01/09 05:29:56;;;;;;;;;;;;;;;-24.03;83.79;100887.56;5055544;28;19925;-71
2022/01/09 05:32:23;;;;;;;;;;;;;;;-23.75;82.48;100891.59;5055462;28;20374;-71
2022/01/09 05:34:49;;;;;;;;;;;;;;;-24.02;82.78;100901.59;5055726;28;19974;-71
2022/01/09 05:37:16;;;;;;;;;;;;;;;-24.03;83.46;100903.19;5055586;28;20394;-71
2022/01/09 05:39:43;;;;;;;;;;;;;;;-23.71;82.85;100902.53;5055457;28;19920;-71
2022/01/09 05:42:10;;;;;;;;;;;;;;;-23.48;82.30;100901.97;5055148;28;20402;-71
2022/01/09 05:44:37;;;;;;;;;;;;;;;-23.49;81.82;100907.63;5055488;28;19921;-71
2022/01/09 05:47:05;;;;;;;;;;;;;;;-23.54;82.71;100916.25;5055394;28;19927;-71
2022/01/09 05:49:32;;;;;;;;;;;;;;;-23.45;81.38;100916.97;5055418;28;19920;-71
2022/01/09 05:51:59;;;;;;;;;;;;;;;-23.67;82.04;100916.81;5055379;28;19921;-71
2022/01/09 05:54:25;;;;;;;;;;;;;;;-23.73;80.82;100916.34;5055302;28;19928;-70
2022/01/09 05:56:52;;;;;;;;;;;;;;;-23.76;80.73;100921.88;5055290;28;19920;-70
2022/01/09 05:59:19;;;;;;;;;;;;;;;-23.82;80.36;100928.75;5055394;28;20058;-71
2022/01/09 06:01:45;;;;;;;;;;;;;;;-24.08;80.59;100933.06;5055348;28;19921;-71
2022/01/09 06:04:13;;;;;;;;;;;;;;;-24.19;81.13;100925.63;5055110;28;20298;-71
2022/01/09 06:06:40;;;;;;;;;;;;;;;-24.25;81.44;100929.16;5055141;28;19921;-71
2022/01/09 06:09:08;;;;;;;;;;;;;;;-24.20;81.69;100937.78;5054861;28;19921;-72
2022/01/09 06:11:34;;;;;;;;;;;;;;;-24.29;81.92;100937.03;5054917;28;19924;-71
2022/01/09 06:14:01;;;;;;;;;;;;;;;-24.22;82.94;100935.22;5055139;28;19920;-71
2022/01/09 06:16:28;;;;;;;;;;;;;;;-24.19;82.93;100934.63;5054996;28;19920;-71
2022/01/09 06:18:54;;;;;;;;;;;;;;;-24.26;83.04;100943.06;5054692;28;19960;-71
2022/01/09 06:21:22;;;;;;;;;;;;;;;-24.29;83.14;100949.31;5054700;28;19924;-70
2022/01/09 06:23:49;;;;;;;;;;;;;;;-24.34;83.97;100951.38;5054562;28;19927;-71
2022/01/09 06:26:16;;;;;;;;;;;;;;;-24.29;84.63;100952.63;5054525;28;19927;-71
2022/01/09 06:28:43;;;;;;;;;;;;;;;-24.19;83.54;100955.16;5054571;28;19921;-72
2022/01/09 06:31:09;;;;;;;;;;;;;;;-24.17;83.90;100959.31;5054315;28;20406;-71
2022/01/09 06:33:36;;;;;;;;;;;;;;;-24.35;83.68;100966.84;5054414;28;19920;-71
2022/01/09 06:36:03;;;;;;;;;;;;;;;-24.38;84.63;100971.50;5053281;28;19927;-69
2022/01/09 06:38:31;;;;;;;;;;;;;;;-24.40;83.91;100968.03;5054220;28;20291;-71
2022/01/09 06:40:58;;;;;;;;;;;;;;;-24.04;84.22;100964.56;5054120;28;19928;-68
2022/01/09 06:43:24;;;;;;;;;;;;;;;-23.77;82.57;100970.97;5054354;28;19974;-71
2022/01/09 06:45:51;;;;;;;;;;;;;;;-23.92;81.66;100969.66;5054354;28;19921;-72
2022/01/09 06:48:17;;;;;;;;;;;;;;;-24.09;82.36;100964.19;5054755;28;19924;-70
2022/01/09 06:50:44;;;;;;;;;;;;;;;-24.06;82.57;100973.44;5054244;28;19920;-68
2022/01/09 06:53:11;;;;;;;;;;;;;;;-24.11;82.23;100977.09;5054107;28;19920;-67
2022/01/09 06:55:39;;;;;;;;;;;;;;;-24.22;82.59;100988.44;5054395;28;19921;-70
2022/01/09 06:58:05;;;;;;;;;;;;;;;-24.14;83.15;100985.06;5054313;28;19921;-65
2022/01/09 07:00:32;;;;;;;;;;;;;;;-24.15;83.16;100992.31;5054024;28;20390;-71
2022/01/09 07:02:58;;;;;;;;;;;;;;;-24.17;82.94;100988.84;5053910;28;19921;-71
2022/01/09 07:05:25;;;;;;;;;;;;;;;-24.27;83.19;100988.06;5053919;28;20286;-70
2022/01/09 07:07:52;;;;;;;;;;;;;;;-24.25;83.21;100996.41;5053804;28;19928;-69
2022/01/09 07:10:18;;;;;;;;;;;;;;;-24.11;84.32;100994.31;5053754;28;19920;-69
2022/01/09 07:12:46;;;;;;;;;;;;;;;-24.19;83.96;100989.59;5053683;28;19932;-70
2022/01/09 07:15:13;;;;;;;;;;;;;;;-24.26;84.76;100998.75;5053646;28;19921;-71
2022/01/09 07:17:39;;;;;;;;;;;;;;;-24.28;84.83;101008.44;5053588;28;19928;-70
2022/01/09 07:20:07;;;;;;;;;;;;;;;-24.23;84.75;100999.88;5053573;28;19927;-71
2022/01/09 07:22:33;;;;;;;;;;;;;;;-24.07;84.57;101002.06;5053851;28;19927;-71
2022/01/09 07:25:00;;;;;;;;;;;;;;;-24.16;83.66;101006.19;5053643;28;19928;-71
2022/01/09 07:27:26;;;;;;;;;;;;;;;-23.86;83.80;101010.44;5053564;28;20298;-70
2022/01/09 07:29:54;;;;;;;;;;;;;;;-23.72;82.18;101018.13;5053485;28;19928;-70
2022/01/09 07:32:21;;;;;;;;;;;;;;;-23.62;82.10;101028.00;5053487;28;20287;-70
2022/01/09 07:34:48;;;;;;;;;;;;;;;-23.75;81.44;101028.59;5053202;28;19927;-70
2022/01/09 07:37:14;;;;;;;;;;;;;;;-23.81;81.91;101046.16;5053106;28;19928;-71
2022/01/09 07:39:41;;;;;;;;;;;;;;;-23.76;83.47;101044.94;5053075;28;19921;-71
2022/01/09 07:42:07;;;;;;;;;;;;;;;-23.36;81.93;101040.91;5053201;28;19921;-71
2022/01/09 07:44:34;;;;;;;;;;;;;;;-23.35;80.57;101034.38;5052976;28;19920;-70
2022/01/09 07:47:02;;;;;;;;;;;;;;;-23.42;79.80;101047.78;5052733;28;19928;-70
2022/01/09 07:49:28;;;;;;;;;;;;;;;-23.55;81.28;101054.84;5053442;28;19925;-70
2022/01/09 07:51:55;;;;;;;;;;;;;;;-23.52;79.85;101052.66;5053209;28;19920;-71
2022/01/09 07:54:21;;;;;;;;;;;;;;;-23.47;80.06;101053.03;5052877;28;20390;-70
2022/01/09 07:56:48;;;;;;;;;;;;;;;-23.70;78.84;101044.56;5053044;28;19943;-70
2022/01/09 07:59:15;;;;;;;;;;;;;;;-23.86;79.47;101048.94;5052884;28;19927;-68
2022/01/09 08:01:41;;;;;;;;;;;;;;;-24.02;80.90;101047.59;5052874;28;19921;-70
2022/01/09 08:04:09;;;;;;;;;;;;;;;-23.87;81.28;101057.06;5052893;28;19943;-66
2022/01/09 08:06:36;;;;;;;;;;;;;;;-23.88;81.19;101058.66;5052825;28;19932;-70
2022/01/09 08:09:02;;;;;;;;;;;;;;;-23.71;81.10;101062.53;5052846;28;19927;-69
2022/01/09 08:11:29;;;;;;;;;;;;;;;-23.48;80.88;101064.47;5052952;28;19928;-71
2022/01/09 08:13:55;;;;;;;;;;;;;;;-23.54;80.77;101057.44;5052762;28;19925;-69
2022/01/09 08:16:22;;;;;;;;;;;;;;;-23.47;80.17;101061.31;5052957;28;19921;-71
2022/01/09 08:18:48;;;;;;;;;;;;;;;-23.53;80.07;101061.63;5052590;28;19921;-70
2022/01/09 08:21:19;;;;;;;;;;;;;;;-23.45;80.26;101066.34;5052542;28;19927;-71
2022/01/09 08:23:46;;;;;;;;;;;;;;;-23.50;80.71;101073.34;5052496;28;19925;-69
2022/01/09 08:26:13;;;;;;;;;;;;;;;-23.31;80.08;101065.94;5052534;28;19920;-69
2022/01/09 08:28:42;;;;;;;;;;;;;;;-23.38;80.13;101071.06;5052529;28;19920;-68
2022/01/09 08:31:08;;;;;;;;;;;;;;;-23.32;81.30;101074.03;5052453;28;19971;-69
2022/01/09 08:33:35;;;;;;;;;;;;;;;-23.39;80.85;101082.53;5052596;28;19920;-71
2022/01/09 08:36:01;;;;;;;;;;;;;;;-23.46;81.45;101076.94;5052428;28;19932;-70
2022/01/09 08:38:30;;;;;;;;;;;;;;;-23.59;80.98;101079.94;5052431;28;20397;-70
2022/01/09 08:40:56;;;;;;;;;;;;;;;-23.60;82.60;101086.47;5052373;28;19920;-69
2022/01/09 08:43:23;;;;;;;;;;;;;;;-23.23;82.12;101087.13;5052335;28;20290;-69
2022/01/09 08:45:49;;;;;;;;;;;;;;;-23.11;81.62;101092.25;5052340;28;20267;-69
2022/01/09 08:50:53;;;;;;;;;;;;;;;-22.92;81.29;101099.53;5069619;28;19924;-75
2022/01/09 08:53:20;;;;;;;;;;;;;;;-22.82;79.95;101102.03;5072330;28;19920;-77
2022/01/09 08:55:48;;;;;;;;;;;;;;;-22.89;80.27;101110.50;5072342;28;19920;-75
2022/01/09 08:58:14;;;;;;;;;;;;;;;-22.81;81.23;101117.69;5072955;28;19931;-74
2022/01/09 09:00:41;;;;;;;;;;;;;;;-22.78;81.03;101118.81;5076638;28;19922;-78
2022/01/09 09:03:08;;;;;;;;;;;;;;;-22.78;81.80;101120.38;5076241;28;19924;-76
2022/01/09 09:05:35;;;;;;;;;;;;;;;-22.72;81.93;101129.19;5076128;28;19927;-77
2022/01/09 09:08:03;;;;;;;;;;;;;;;-22.56;81.26;101123.91;5076341;28;20367;-76
2022/01/09 09:10:30;;;;;;;;;;;;;;;-22.50;80.01;101128.47;5075717;28;19974;-76
2022/01/09 09:12:58;;;;;;;;;;;;;;;-22.60;82.49;101145.72;5076171;28;19920;-76
2022/01/09 09:15:24;;;;;;;;;;;;;;;-22.56;82.62;101152.66;5074166;28;20344;-78
2022/01/09 09:17:51;;;;;;;;;;;;;;;-22.62;82.37;101152.16;5072846;28;19927;-77
2022/01/09 09:20:18;;;;;;;;;;;;;;;-22.54;83.89;101156.09;5075537;28;19929;-76
2022/01/09 09:22:45;;;;;;;;;;;;;;;-22.37;83.10;101146.03;5075980;28;19921;-76
2022/01/09 09:25:12;;;;;;;;;;;;;;;-22.25;83.46;101144.53;5075225;28;19921;-77
2022/01/09 09:27:39;;;;;;;;;;;;;;;-22.05;82.79;101153.53;5075726;28;20398;-77
2022/01/09 09:30:08;;;;;;;;;;;;;;;-22.06;84.18;101155.88;5075990;28;19928;-78
2022/01/09 09:32:34;;;;;;;;;;;;;;;-21.99;83.01;101161.44;5075467;28;19920;-77
2022/01/09 09:35:02;;;;;;;;;;;;;;;-21.71;83.11;101150.47;5075855;28;19927;-77
2022/01/09 09:37:28;;;;;;;;;;;;;;;-21.60;81.64;101159.56;5075927;28;19929;-76
2022/01/09 09:39:55;;;;;;;;;;;;;;;-21.59;81.93;101157.25;5098324;22;19920;-77
2022/01/09 09:42:22;;;;;;;;;;;;;;;-21.64;81.72;101160.94;5075797;28;19920;-77
2022/01/09 09:44:49;;;;;;;;;;;;;;;-21.59;83.11;101157.25;5075367;28;20270;-77
2022/01/09 09:47:18;;;;;;;;;;;;;;;-21.37;81.97;101166.31;5075495;28;19920;-77
2022/01/09 09:49:44;;;;;;;;;;;;;;;-21.32;81.75;101165.94;5077338;22;19927;-70
2022/01/09 09:52:15;;;;;;;;;;;;;;;-21.20;81.02;101155.28;5055291;28;19925;-70
2022/01/09 09:54:41;;;;;;;;;;;;;;;-21.28;81.71;101157.16;5055187;28;20383;-68
2022/01/09 09:57:08;;;;;;;;;;;;;;;-21.22;79.77;101166.66;5054942;28;19921;-67
2022/01/09 09:59:37;;;;;;;;;;;;;;;-21.28;80.49;101168.66;5055168;28;19920;-70
2022/01/09 10:02:08;;;;;;;;;;;;;;;-21.24;80.11;101164.06;5055372;28;19921;-71
2022/01/09 10:04:36;;;;;;;;;;;;;;;-21.18;79.54;101168.63;5055094;28;19921;-69
2022/01/09 10:07:03;;;;;;;;;;;;;;;-21.34;79.13;101173.97;5054804;28;19921;-71
2022/01/09 10:09:29;;;;;;;;;;;;;;;-21.44;80.91;101172.41;5054490;28;19920;-68
2022/01/09 10:11:58;;;;;;;;;;;;;;;-21.30;80.72;101166.03;5055055;28;19927;-68
2022/01/09 10:14:26;;;;;;;;;;;;;;;-21.34;79.88;101173.97;5054997;28;19921;-71
2022/01/09 10:17:07;;;;;;;;;;;;;;;-21.31;80.22;101165.19;5054699;28;20342;-70
2022/01/09 10:19:49;;;;;;;;;;;;;;;-21.43;80.30;101164.25;5055072;28;19920;-70
2022/01/09 10:22:22;;;;;;;;;;;;;;;-21.48;81.14;101165.50;5054961;28;19979;-70
2022/01/09 10:24:49;;;;;;;;;;;;;;;-21.55;81.02;101165.75;5053126;28;20434;-65
2022/01/09 10:27:27;;;;;;;;;;;;;;;-21.60;82.02;101165.41;5054693;28;19928;-70
2022/01/09 10:29:54;;;;;;;;;;;;;;;-21.58;82.97;101170.44;5054528;28;19936;-69
2022/01/09 10:32:21;;;;;;;;;;;;;;;-21.54;83.23;101182.31;5054450;28;19920;-70
2022/01/09 10:35:03;;;;;;;;;;;;;;;-21.47;84.19;101186.13;5054895;28;19982;-70
2022/01/09 10:37:30;;;;;;;;;;;;;;;-21.39;84.64;101185.16;5054550;28;19931;-70
2022/01/09 10:40:00;;;;;;;;;;;;;;;-21.40;84.23;101175.97;5054371;28;19921;-71
2022/01/09 10:42:26;;;;;;;;;;;;;;;-21.41;84.59;101179.22;5054630;28;19921;-70
2022/01/09 10:44:53;;;;;;;;;;;;;;;-21.38;85.44;101179.44;5053940;28;19921;-70
2022/01/09 10:47:20;;;;;;;;;;;;;;;-21.32;84.21;101170.88;5035768;28;19921;-70
2022/01/09 10:49:47;;;;;;;;;;;;;;;-21.36;84.77;101176.31;5033911;28;19921;-70
2022/01/09 10:52:18;;;;;;;;;;;;;;;-21.39;85.82;101173.66;5032823;28;19921;-72
2022/01/09 10:54:46;;;;;;;;;;;;;;;-21.32;84.56;101182.34;5034154;28;19956;-71
2022/01/09 10:57:14;;;;;;;;;;;;;;;-21.27;85.10;101176.16;5034177;28;20012;-73
2022/01/09 10:59:40;;;;;;;;;;;;;;;-21.23;85.75;101182.22;5034249;28;19932;-76
2022/01/09 11:02:07;;;;;;;;;;;;;;;-21.06;84.30;101181.06;5034044;28;19921;-70
2022/01/09 11:04:34;;;;;;;;;;;;;;;-20.98;83.69;101185.00;5033946;28;19996;-71
2022/01/09 11:07:01;;;;;;;;;;;;;;;-20.96;83.61;101184.38;5034034;28;19921;-71
2022/01/09 11:09:30;;;;;;;;;;;;;;;-20.93;83.73;101183.72;5033691;28;19921;-71
2022/01/09 11:11:56;;;;;;;;;;;;;;;-21.03;83.54;101183.78;5033624;28;19967;-66
2022/01/09 11:14:24;;;;;;;;;;;;;;;-20.91;83.82;101178.16;5033821;28;19921;-70
2022/01/09 11:16:53;;;;;;;;;;;;;;;-20.85;83.00;101174.44;5034064;28;19967;-71
2022/01/09 11:19:20;;;;;;;;;;;;;;;-20.83;82.81;101172.94;5033687;28;19921;-71
2022/01/09 11:21:47;;;;;;;;;;;;;;;-20.76;83.22;101180.09;5033041;28;19928;-71
2022/01/09 11:24:32;;;;;;;;;;;;;;;-20.78;83.45;101187.38;5033336;28;19928;-71
2022/01/09 11:27:04;;;;;;;;;;;;;;;-20.84;82.82;101193.50;5033532;28;19928;-69
2022/01/09 11:29:33;;;;;;;;;;;;;;;-21.03;83.93;101192.06;5033687;28;19921;-66
2022/01/09 11:32:09;;;;;;;;;;;;;;;-20.73;83.25;101187.75;5033568;28;19921;-71
2022/01/09 11:34:39;;;;;;;;;;;;;;;-20.77;82.63;101193.22;5033471;28;19928;-65
2022/01/09 11:37:10;;;;;;;;;;;;;;;-20.79;83.65;101202.13;5033505;28;19928;-64
2022/01/09 11:39:37;;;;;;;;;;;;;;;-20.70;83.20;101190.44;5033855;28;19971;-66
2022/01/09 11:42:10;;;;;;;;;;;;;;;-20.70;83.20;101193.81;5033185;28;19925;-69
2022/01/09 11:44:45;;;;;;;;;;;;;;;-20.72;83.33;101204.34;5033125;28;19921;-66
2022/01/09 11:47:11;;;;;;;;;;;;;;;-20.70;82.80;101211.13;5033747;28;19928;-64
2022/01/09 11:49:39;;;;;;;;;;;;;;;-20.71;83.71;101213.47;5033452;28;19928;-70
2022/01/09 11:52:06;;;;;;;;;;;;;;;-20.55;83.55;101215.50;5033047;28;20371;-70
2022/01/09 11:54:47;;;;;;;;;;;;;;;-20.55;83.20;101227.88;5033138;28;20406;-64
2022/01/09 11:57:20;;;;;;;;;;;;;;;-20.53;83.16;101222.28;5033070;28;20287;-69
2022/01/09 11:59:51;;;;;;;;;;;;;;;-20.54;82.58;101225.53;5030946;28;19928;-65
2022/01/09 12:02:31;;;;;;;;;;;;;;;-20.64;82.65;101237.09;5033052;28;19983;-68
2022/01/09 12:05:00;;;;;;;;;;;;;;;-20.64;83.43;101232.13;5032488;28;19925;-65
2022/01/09 12:07:44;;;;;;;;;;;;;;;-20.52;83.60;101237.97;5032325;28;19921;-70
2022/01/09 12:10:32;;;;;;;;;;;;;;;-20.52;82.97;101236.38;5022571;28;19975;-68
2022/01/09 12:13:01;;;;;;;;;;;;;;;-20.59;82.23;101239.16;5028000;28;19920;-64
2022/01/09 12:15:38;;;;;;;;;;;;;;;-20.60;83.10;101243.97;5032618;28;19921;-66
2022/01/09 12:18:06;;;;;;;;;;;;;;;-20.47;83.53;101244.13;5032680;28;19921;-64
2022/01/09 12:20:37;;;;;;;;;;;;;;;-20.42;82.76;101247.81;5032650;28;19925;-65
2022/01/09 12:23:05;;;;;;;;;;;;;;;-20.44;82.57;101247.72;5032499;28;19925;-69
2022/01/09 12:25:39;;;;;;;;;;;;;;;-20.50;83.39;101243.91;5032404;28;19979;-64
2022/01/09 12:28:08;;;;;;;;;;;;;;;-20.55;83.42;101245.19;5032415;28;19921;-67
2022/01/09 12:30:47;;;;;;;;;;;;;;;-20.69;84.18;101246.63;5032341;28;19921;-69
2022/01/09 12:33:15;;;;;;;;;;;;;;;-20.57;83.38;101256.59;5031495;28;19924;-65